createdAt,value
2018-02-19T00:01:24.745Z,7.40
2018-02-19T00:03:52.385Z,7.40
2018-02-19T00:06:20.781Z,7.40
2018-02-19T00:08:48.421Z,7.40
2018-02-19T00:11:16.862Z,7.40
2018-02-19T00:13:44.466Z,7.40
2018-02-19T00:16:12.849Z,7.40
2018-02-19T00:18:41.211Z,7.40
2018-02-19T00:21:08.831Z,7.30
2018-02-19T00:23:37.000Z,7.30
2018-02-19T00:26:04.635Z,7.30
2018-02-19T00:28:32.235Z,7.30
2018-02-19T00:30:59.833Z,7.30
2018-02-19T00:33:28.266Z,7.30
2018-02-19T00:35:55.874Z,7.20
2018-02-19T00:38:24.272Z,7.30
2018-02-19T00:40:52.637Z,7.20
2018-02-19T00:43:21.001Z,7.20
2018-02-19T00:45:48.641Z,7.20
2018-02-19T00:48:16.247Z,7.20
2018-02-19T00:50:44.636Z,7.20
2018-02-19T00:53:12.239Z,7.10
2018-02-19T00:55:40.520Z,7.20
2018-02-19T00:58:08.141Z,7.20
2018-02-19T01:00:35.747Z,7.20
2018-02-19T01:03:03.376Z,7.10
2018-02-19T01:05:30.986Z,7.10
2018-02-19T01:07:58.626Z,7.10
2018-02-19T01:10:26.279Z,7.10
2018-02-19T01:12:53.917Z,7.10
2018-02-19T01:15:21.512Z,7.10
2018-02-19T01:17:49.112Z,7.10
2018-02-19T01:20:17.502Z,7.10
2018-02-19T01:22:45.102Z,7.00
2018-02-19T01:25:12.723Z,7.00
2018-02-19T01:27:40.331Z,7.10
2018-02-19T01:30:07.952Z,7.00
2018-02-19T01:32:35.565Z,7.00
2018-02-19T01:35:03.164Z,7.00
2018-02-19T01:37:30.787Z,7.00
2018-02-19T01:39:58.386Z,7.00
2018-02-19T01:42:26.050Z,7.00
2018-02-19T01:44:53.648Z,7.00
2018-02-19T01:47:21.246Z,7.00
2018-02-19T01:50:01.686Z,7.00
2018-02-19T01:52:29.272Z,6.90
2018-02-19T01:54:57.677Z,7.00
2018-02-19T01:57:25.302Z,6.90
2018-02-19T01:59:52.903Z,7.00
2018-02-19T02:02:20.537Z,6.90
2018-02-19T02:04:48.917Z,6.90
2018-02-19T02:07:19.112Z,6.90
2018-02-19T02:09:48.241Z,6.80
2018-02-19T02:12:16.614Z,6.90
2018-02-19T02:14:45.003Z,6.90
2018-02-19T02:17:12.605Z,6.80
2018-02-19T02:19:40.236Z,6.90
2018-02-19T02:22:07.888Z,6.90
2018-02-19T02:24:35.491Z,6.90
2018-02-19T02:27:03.101Z,6.90
2018-02-19T02:29:31.459Z,6.90
2018-02-19T02:31:59.084Z,6.90
2018-02-19T02:34:26.689Z,6.90
2018-02-19T02:36:55.069Z,6.90
2018-02-19T02:39:23.460Z,6.90
2018-02-19T02:41:51.821Z,6.90
2018-02-19T02:44:20.253Z,6.90
2018-02-19T02:46:47.855Z,6.80
2018-02-19T02:49:15.454Z,6.90
2018-02-19T02:51:43.097Z,6.90
2018-02-19T02:54:11.465Z,6.90
2018-02-19T02:56:39.893Z,6.90
2018-02-19T02:59:07.508Z,6.90
2018-02-19T03:01:35.878Z,6.90
2018-02-19T03:04:04.268Z,6.90
2018-02-19T03:06:32.625Z,6.90
2018-02-19T03:09:01.083Z,6.90
2018-02-19T03:11:28.677Z,6.80
2018-02-19T03:13:57.040Z,6.90
2018-02-19T03:16:25.432Z,6.90
2018-02-19T03:18:53.033Z,6.80
2018-02-19T03:21:20.665Z,6.90
2018-02-19T03:23:49.038Z,6.90
2018-02-19T03:26:17.400Z,6.80
2018-02-19T03:28:45.055Z,6.80
2018-02-19T03:31:13.093Z,6.90
2018-02-19T03:33:40.739Z,6.80
2018-02-19T03:36:08.349Z,6.80
2018-02-19T03:38:35.949Z,6.80
2018-02-19T03:41:03.576Z,6.80
2018-02-19T03:43:31.176Z,6.80
2018-02-19T03:45:58.804Z,6.80
2018-02-19T03:48:26.412Z,6.80
2018-02-19T03:50:54.039Z,6.80
2018-02-19T03:53:22.425Z,6.70
2018-02-19T03:55:50.789Z,6.70
2018-02-19T03:58:18.414Z,6.70
2018-02-19T04:00:46.017Z,6.70
2018-02-19T04:03:14.413Z,6.70
2018-02-19T04:05:42.014Z,6.60
2018-02-19T04:08:09.610Z,6.70
2018-02-19T04:10:38.002Z,6.70
2018-02-19T04:13:05.596Z,6.60
2018-02-19T04:15:33.222Z,6.60
2018-02-19T04:18:01.601Z,6.60
2018-02-19T04:20:29.315Z,6.60
2018-02-19T04:22:56.920Z,6.60
2018-02-19T04:25:25.287Z,6.60
2018-02-19T04:27:52.908Z,6.60
2018-02-19T04:30:20.519Z,6.60
2018-02-19T04:32:48.917Z,6.60
2018-02-19T04:35:17.337Z,6.50
2018-02-19T04:37:44.941Z,6.50
2018-02-19T04:40:13.337Z,6.50
2018-02-19T04:42:40.934Z,6.50
2018-02-19T04:45:14.371Z,6.50
2018-02-19T04:47:42.752Z,6.50
2018-02-19T04:50:11.132Z,6.50
2018-02-19T04:52:39.503Z,6.50
2018-02-19T04:55:07.920Z,6.50
2018-02-19T04:57:35.546Z,6.40
2018-02-19T05:00:03.140Z,6.40
2018-02-19T05:02:30.769Z,6.40
2018-02-19T05:04:59.148Z,6.40
2018-02-19T05:07:26.812Z,6.40
2018-02-19T05:09:55.225Z,6.40
2018-02-19T05:12:22.843Z,6.40
2018-02-19T05:14:50.468Z,6.40
2018-02-19T05:17:18.081Z,6.40
2018-02-19T05:19:46.528Z,6.40
2018-02-19T05:22:14.150Z,6.40
2018-02-19T05:24:41.756Z,6.40
2018-02-19T05:27:10.157Z,6.40
2018-02-19T05:29:38.524Z,6.40
2018-02-19T05:32:06.262Z,6.30
2018-02-19T05:34:33.864Z,6.40
2018-02-19T05:37:02.236Z,6.40
2018-02-19T05:39:30.633Z,6.40
2018-02-19T05:41:58.241Z,6.30
2018-02-19T05:44:25.881Z,6.40
2018-02-19T05:46:53.485Z,6.40
2018-02-19T05:49:21.857Z,6.40
2018-02-19T05:51:49.480Z,6.30
2018-02-19T05:54:17.086Z,6.40
2018-02-19T05:56:44.727Z,6.40
2018-02-19T05:59:12.327Z,6.40
2018-02-19T06:01:40.717Z,6.40
2018-02-19T06:04:08.430Z,6.30
2018-02-19T06:06:36.065Z,6.40
2018-02-19T06:09:03.656Z,6.40
2018-02-19T06:11:31.360Z,6.40
2018-02-19T06:13:59.780Z,6.30
2018-02-19T06:16:27.389Z,6.30
2018-02-19T06:18:55.778Z,6.30
2018-02-19T06:21:23.394Z,6.30
2018-02-19T06:23:51.080Z,6.30
2018-02-19T06:26:18.665Z,6.30
2018-02-19T06:28:46.296Z,6.30
2018-02-19T06:31:13.893Z,6.30
2018-02-19T06:33:41.541Z,6.30
2018-02-19T06:36:09.910Z,6.30
2018-02-19T06:38:38.427Z,6.30
2018-02-19T06:41:06.084Z,6.30
2018-02-19T06:43:33.702Z,6.30
2018-02-19T06:46:01.344Z,6.30
2018-02-19T06:48:28.945Z,6.30
2018-02-19T06:50:57.317Z,6.30
2018-02-19T06:53:25.717Z,6.30
2018-02-19T06:55:53.309Z,6.20
2018-02-19T06:58:20.944Z,6.30
2018-02-19T07:00:48.581Z,6.30
2018-02-19T07:03:16.940Z,6.30
2018-02-19T07:05:44.672Z,6.20
2018-02-19T07:08:12.265Z,6.30
2018-02-19T07:10:39.890Z,6.30
2018-02-19T07:13:07.555Z,6.30
2018-02-19T07:15:35.176Z,6.30
2018-02-19T07:18:02.786Z,6.30
2018-02-19T07:20:30.425Z,6.30
2018-02-19T07:22:58.033Z,6.30
2018-02-19T07:25:25.629Z,6.30
2018-02-19T07:27:53.269Z,6.30
2018-02-19T07:30:21.630Z,6.30
2018-02-19T07:32:50.022Z,6.40
2018-02-19T07:35:18.507Z,6.40
2018-02-19T07:37:46.897Z,6.40
2018-02-19T07:40:14.533Z,6.30
2018-02-19T07:42:42.927Z,6.40
2018-02-19T07:45:11.303Z,6.40
2018-02-19T07:47:39.699Z,6.40
2018-02-19T07:50:08.058Z,6.50
2018-02-19T07:52:36.464Z,6.50
2018-02-19T07:55:04.066Z,6.40
2018-02-19T07:57:31.820Z,6.50
2018-02-19T07:59:59.432Z,6.50
2018-02-19T08:02:27.838Z,6.50
2018-02-19T08:04:55.456Z,6.50
2018-02-19T08:07:23.089Z,6.60
2018-02-19T08:09:50.704Z,6.60
2018-02-19T08:12:19.096Z,6.60
2018-02-19T08:14:46.696Z,6.50
2018-02-19T08:17:14.365Z,6.60
2018-02-19T08:19:41.965Z,6.60
2018-02-19T08:22:10.607Z,6.70
2018-02-19T08:24:38.216Z,6.60
2018-02-19T08:27:05.861Z,6.70
2018-02-19T08:29:34.224Z,6.70
2018-02-19T08:32:01.839Z,6.70
2018-02-19T08:34:29.525Z,6.70
2018-02-19T08:36:57.141Z,6.70
2018-02-19T08:39:25.078Z,6.80
2018-02-19T08:41:52.682Z,6.80
2018-02-19T08:44:20.303Z,6.80
2018-02-19T08:46:48.675Z,6.80
2018-02-19T08:49:16.313Z,6.80
2018-02-19T08:51:43.919Z,6.90
2018-02-19T08:54:12.305Z,6.90
2018-02-19T08:56:39.900Z,6.90
2018-02-19T08:59:07.531Z,6.90
2018-02-19T09:01:35.233Z,7.00
2018-02-19T09:04:02.882Z,7.00
2018-02-19T09:06:30.484Z,7.00
2018-02-19T09:08:58.089Z,7.00
2018-02-19T09:11:25.717Z,7.10
2018-02-19T09:13:54.123Z,7.10
2018-02-19T09:16:21.761Z,7.10
2018-02-19T09:18:50.146Z,7.20
2018-02-19T09:21:18.566Z,7.20
2018-02-19T09:23:46.156Z,7.20
2018-02-19T09:26:14.534Z,7.30
2018-02-19T09:28:42.166Z,7.20
2018-02-19T09:31:09.761Z,7.30
2018-02-19T09:33:37.392Z,7.30
2018-02-19T09:36:04.993Z,7.40
2018-02-19T09:38:33.358Z,7.40
2018-02-19T09:41:01.002Z,7.40
2018-02-19T09:43:28.603Z,7.40
2018-02-19T09:45:57.003Z,7.50
2018-02-19T09:48:24.606Z,7.50
2018-02-19T09:50:52.233Z,7.50
2018-02-19T09:53:19.856Z,7.60
2018-02-19T09:55:47.460Z,7.60
2018-02-19T09:58:15.177Z,7.60
2018-02-19T10:00:43.555Z,7.70
2018-02-19T10:03:11.183Z,7.70
2018-02-19T10:05:38.840Z,7.70
2018-02-19T10:08:06.432Z,7.70
2018-02-19T10:10:34.058Z,7.80
2018-02-19T10:13:01.653Z,7.80
2018-02-19T10:15:29.297Z,7.90
2018-02-19T10:17:56.905Z,7.90
2018-02-19T10:20:25.281Z,8.00
2018-02-19T10:22:53.670Z,8.00
2018-02-19T10:25:21.287Z,8.00
2018-02-19T10:27:49.871Z,8.10
2018-02-19T10:30:17.493Z,8.10
2018-02-19T10:32:45.140Z,8.20
2018-02-19T10:35:12.750Z,8.20
2018-02-19T10:37:40.353Z,8.20
2018-02-19T10:40:08.000Z,8.20
2018-02-19T10:42:35.617Z,8.30
2018-02-19T10:45:03.252Z,8.30
2018-02-19T10:47:30.849Z,8.30
2018-02-19T10:49:58.465Z,8.40
2018-02-19T10:52:26.092Z,8.40
2018-02-19T10:54:53.693Z,8.40
2018-02-19T10:57:21.332Z,8.50
2018-02-19T10:59:49.704Z,8.60
2018-02-19T11:02:18.068Z,8.60
2018-02-19T11:04:45.692Z,8.60
2018-02-19T11:07:13.284Z,8.70
2018-02-19T11:09:40.948Z,8.70
2018-02-19T11:12:08.579Z,8.70
2018-02-19T11:14:36.187Z,8.80
2018-02-19T11:17:04.735Z,8.90
2018-02-19T11:19:32.509Z,8.90
2018-02-19T11:22:00.136Z,8.90
2018-02-19T11:24:27.730Z,9.00
2018-02-19T11:26:55.358Z,9.00
2018-02-19T11:29:22.964Z,9.10
2018-02-19T11:31:50.569Z,9.10
2018-02-19T11:34:18.210Z,9.10
2018-02-19T11:36:46.581Z,9.20
2018-02-19T11:39:15.064Z,9.20
2018-02-19T11:41:43.421Z,9.30
2018-02-19T11:44:11.066Z,9.30
2018-02-19T11:46:38.662Z,9.40
2018-02-19T11:49:07.057Z,9.50
2018-02-19T11:51:34.684Z,9.40
2018-02-19T11:54:02.318Z,9.50
2018-02-19T11:56:29.925Z,9.60
2018-02-19T11:58:58.322Z,9.70
2018-02-19T12:01:25.920Z,9.60
2018-02-19T12:03:53.568Z,9.70
2018-02-19T12:06:21.178Z,9.70
2018-02-19T12:08:49.627Z,9.90
2018-02-19T12:11:17.277Z,9.80
2018-02-19T12:13:44.917Z,10.00
2018-02-19T12:16:12.520Z,10.00
2018-02-19T12:18:40.128Z,10.10
2018-02-19T12:21:07.759Z,10.20
2018-02-19T12:23:35.382Z,10.30
2018-02-19T12:26:03.021Z,10.40
2018-02-19T12:28:30.703Z,10.40
2018-02-19T12:30:58.304Z,10.50
2018-02-19T12:33:25.964Z,10.60
2018-02-19T12:35:53.617Z,10.60
2018-02-19T12:38:21.247Z,10.70
2018-02-19T12:40:48.849Z,10.70
2018-02-19T12:43:16.535Z,10.80
2018-02-19T12:45:44.164Z,10.90
2018-02-19T12:48:11.765Z,10.90
2018-02-19T12:50:39.413Z,11.00
2018-02-19T12:53:07.015Z,11.00
2018-02-19T12:55:34.646Z,11.10
2018-02-19T12:58:02.275Z,11.10
2018-02-19T13:00:29.889Z,11.10
2018-02-19T13:02:57.534Z,11.10
2018-02-19T13:05:25.153Z,11.20
2018-02-19T13:07:52.789Z,11.20
2018-02-19T13:10:20.431Z,11.20
2018-02-19T13:12:48.024Z,11.20
2018-02-19T13:15:15.657Z,11.20
2018-02-19T13:17:43.264Z,11.20
2018-02-19T13:20:10.900Z,11.20
2018-02-19T13:22:38.518Z,11.30
2018-02-19T13:25:06.174Z,11.30
2018-02-19T13:27:33.776Z,11.30
2018-02-19T13:30:01.377Z,11.30
2018-02-19T13:32:29.782Z,11.30
2018-02-19T13:34:57.472Z,11.20
2018-02-19T13:37:25.111Z,11.30
2018-02-19T13:39:52.721Z,11.30
2018-02-19T13:42:20.361Z,11.30
2018-02-19T13:44:47.996Z,11.40
2018-02-19T13:49:48.873Z,11.40
2018-02-19T13:52:16.614Z,11.40
2018-02-19T13:54:44.240Z,11.40
2018-02-19T13:57:12.657Z,11.40
2018-02-19T13:59:40.577Z,11.40
2018-02-19T14:02:08.250Z,11.40
2018-02-19T14:04:35.992Z,11.40
2018-02-19T14:07:03.775Z,11.40
2018-02-19T14:09:31.742Z,11.40
2018-02-19T14:11:59.602Z,11.40
2018-02-19T14:14:27.578Z,11.40
2018-02-19T14:16:55.552Z,11.40
2018-02-19T14:19:23.413Z,11.40
2018-02-19T14:21:51.285Z,11.40
2018-02-19T14:24:19.321Z,11.40
2018-02-19T14:26:47.018Z,11.40
2018-02-19T14:29:14.867Z,11.40
2018-02-19T14:31:43.374Z,11.40
2018-02-19T14:34:11.128Z,11.30
2018-02-19T14:36:38.928Z,11.40
2018-02-19T14:39:07.684Z,11.40
2018-02-19T14:41:35.661Z,11.40
2018-02-19T14:44:03.538Z,11.40
2018-02-19T14:46:31.595Z,11.40
2018-02-19T14:49:00.094Z,11.40
2018-02-19T14:51:27.868Z,11.30
2018-02-19T14:53:55.595Z,11.40
2018-02-19T14:56:23.464Z,11.40
2018-02-19T14:58:52.161Z,11.40
2018-02-19T15:01:20.022Z,11.30
2018-02-19T15:03:47.770Z,11.40
2018-02-19T15:06:15.482Z,11.40
2018-02-19T15:08:44.136Z,11.50
2018-02-19T15:11:11.988Z,11.40
2018-02-19T15:13:39.774Z,11.50
2018-02-19T15:16:07.632Z,11.50
2018-02-19T15:18:35.427Z,11.50
2018-02-19T15:21:03.914Z,11.50
2018-02-19T15:23:32.573Z,11.50
2018-02-19T15:26:00.436Z,11.40
2018-02-19T15:28:28.934Z,11.40
2018-02-19T15:30:56.667Z,11.40
2018-02-19T15:33:24.468Z,11.40
2018-02-19T15:35:52.211Z,11.40
2018-02-19T15:38:20.131Z,11.40
2018-02-19T15:40:47.838Z,11.30
2018-02-19T15:43:15.652Z,11.30
2018-02-19T15:45:44.172Z,11.20
2018-02-19T15:48:12.067Z,11.20
2018-02-19T15:50:40.664Z,11.20
2018-02-19T15:53:09.081Z,11.10
2018-02-19T15:55:36.876Z,11.10
2018-02-19T15:58:04.648Z,11.10
2018-02-19T16:00:32.520Z,11.10
2018-02-19T16:03:00.304Z,11.10
2018-02-19T16:05:28.135Z,11.10
2018-02-19T16:07:55.830Z,11.10
2018-02-19T16:10:23.562Z,11.10
2018-02-19T16:12:51.337Z,11.10
2018-02-19T16:15:19.194Z,11.00
2018-02-19T16:17:46.972Z,11.00
2018-02-19T16:20:14.646Z,11.00
2018-02-19T16:22:43.990Z,10.90
2018-02-19T16:25:11.717Z,10.90
2018-02-19T16:27:39.570Z,10.90
2018-02-19T16:30:07.419Z,10.80
2018-02-19T16:32:35.248Z,10.80
2018-02-19T16:35:02.931Z,10.80
2018-02-19T16:37:30.611Z,10.80
2018-02-19T16:39:58.335Z,10.80
2018-02-19T16:42:26.808Z,10.70
2018-02-19T16:44:55.468Z,10.70
2018-02-19T16:47:23.228Z,10.60
2018-02-19T16:49:51.080Z,10.70
2018-02-19T16:52:18.859Z,10.60
2018-02-19T16:54:46.648Z,10.60
2018-02-19T16:57:15.108Z,10.50
2018-02-19T16:59:42.875Z,10.50
2018-02-19T17:02:10.634Z,10.50
2018-02-19T17:04:38.995Z,10.50
2018-02-19T17:07:06.786Z,10.40
2018-02-19T17:09:34.650Z,10.40
2018-02-19T17:12:03.256Z,10.30
2018-02-19T17:14:31.667Z,10.30
2018-02-19T17:16:59.491Z,10.20
2018-02-19T17:19:27.965Z,10.20
2018-02-19T17:21:55.919Z,10.10
2018-02-19T17:24:23.899Z,10.10
2018-02-19T17:26:51.766Z,10.10
2018-02-19T17:29:21.169Z,9.90
2018-02-19T17:31:48.986Z,9.90
2018-02-19T17:34:16.721Z,9.90
2018-02-19T17:36:45.140Z,9.80
2018-02-19T17:39:12.880Z,9.80
2018-02-19T17:41:41.421Z,9.80
2018-02-19T17:44:09.133Z,9.70
2018-02-19T17:46:36.790Z,9.70
2018-02-19T17:49:04.717Z,9.70
2018-02-19T17:51:32.681Z,9.70
2018-02-19T17:54:01.818Z,9.60
2018-02-19T17:56:30.473Z,9.50
2018-02-19T17:58:58.334Z,9.50
2018-02-19T18:01:26.187Z,9.50
2018-02-19T18:03:54.175Z,9.50
2018-02-19T18:06:22.040Z,9.50
2018-02-19T18:08:50.995Z,9.50
2018-02-19T18:11:19.008Z,9.50
2018-02-19T18:13:47.040Z,9.40
2018-02-19T18:16:15.040Z,9.40
2018-02-19T18:18:42.953Z,9.40
2018-02-19T18:21:10.741Z,9.30
2018-02-19T18:23:38.610Z,9.30
2018-02-19T18:26:06.515Z,9.30
2018-02-19T18:28:35.171Z,9.30
2018-02-19T18:31:03.190Z,9.20
2018-02-19T18:33:31.139Z,9.20
2018-02-19T18:35:59.104Z,9.20
2018-02-19T18:38:26.983Z,9.30
2018-02-19T18:40:54.943Z,9.30
2018-02-19T18:43:22.813Z,9.30
2018-02-19T18:45:50.673Z,9.30
2018-02-19T18:48:18.504Z,9.30
2018-02-19T18:50:47.090Z,9.30
2018-02-19T18:53:15.005Z,9.30
2018-02-19T18:55:43.681Z,9.20
2018-02-19T18:58:11.430Z,9.20
2018-02-19T19:00:39.196Z,9.20
2018-02-19T19:03:07.114Z,9.20
2018-02-19T19:05:35.648Z,9.20
2018-02-19T19:08:15.413Z,9.10
2018-02-19T19:10:58.822Z,9.20
2018-02-19T19:13:26.611Z,9.10
2018-02-19T19:15:55.187Z,9.10
2018-02-19T19:18:22.913Z,9.00
2018-02-19T19:20:50.638Z,9.00
2018-02-19T19:23:18.308Z,9.00
2018-02-19T19:25:50.242Z,8.90
2018-02-19T19:28:18.112Z,8.90
2018-02-19T19:30:46.086Z,8.90
2018-02-19T19:33:13.952Z,8.90
2018-02-19T19:35:41.818Z,8.90
2018-02-19T19:38:09.690Z,8.90
2018-02-19T19:40:38.544Z,8.80
2018-02-19T19:43:06.479Z,8.80
2018-02-19T19:45:35.479Z,8.80
2018-02-19T19:48:04.272Z,8.80
2018-02-19T19:50:32.202Z,8.70
2018-02-19T19:53:00.069Z,8.80
2018-02-19T19:55:28.852Z,8.70
2018-02-19T19:57:56.712Z,8.60
2018-02-19T20:00:35.821Z,8.70
2018-02-19T20:03:05.589Z,8.60
2018-02-19T20:05:34.716Z,8.60
2018-02-19T20:08:02.621Z,8.60
2018-02-19T20:10:30.498Z,8.60
2018-02-19T20:12:58.454Z,8.60
2018-02-19T20:15:26.330Z,8.50
2018-02-19T20:17:54.302Z,8.50
2018-02-19T20:20:22.163Z,8.50
2018-02-19T20:22:50.027Z,8.50
2018-02-19T20:25:17.999Z,8.50
2018-02-19T20:27:45.871Z,8.40
2018-02-19T20:30:13.833Z,8.40
2018-02-19T20:32:41.698Z,8.40
2018-02-19T20:35:09.576Z,8.40
2018-02-19T20:37:37.414Z,8.40
2018-02-19T20:40:05.303Z,8.30
2018-02-19T20:42:33.146Z,8.30
2018-02-19T20:45:00.830Z,8.30
2018-02-19T20:47:28.604Z,8.30
2018-02-19T20:49:56.870Z,8.20
2018-02-19T20:52:24.736Z,8.20
2018-02-19T20:54:52.720Z,8.20
2018-02-19T20:57:20.595Z,8.20
2018-02-19T20:59:48.447Z,8.10
2018-02-19T21:02:16.423Z,8.10
2018-02-19T21:04:44.279Z,8.10
2018-02-19T21:07:12.252Z,8.10
2018-02-19T21:09:40.035Z,8.00
2018-02-19T21:12:08.705Z,8.00
2018-02-19T21:14:36.668Z,8.00
2018-02-19T21:17:04.541Z,8.00
2018-02-19T21:19:32.518Z,8.00
2018-02-19T21:22:00.374Z,7.90
2018-02-19T21:24:28.259Z,7.90
2018-02-19T21:27:02.259Z,7.90
2018-02-19T21:29:30.222Z,7.80
2018-02-19T21:31:58.088Z,7.80
2018-02-19T21:34:25.968Z,7.80
2018-02-19T21:36:53.936Z,7.80
2018-02-19T21:39:21.797Z,7.80
2018-02-19T21:41:50.235Z,7.80
2018-02-19T21:44:18.113Z,7.70
2018-02-19T21:46:46.024Z,7.80
2018-02-19T21:49:13.984Z,7.80
2018-02-19T21:51:41.851Z,7.80
2018-02-19T21:54:11.273Z,7.70
2018-02-19T21:56:39.083Z,7.70
2018-02-19T21:59:06.984Z,7.70
2018-02-19T22:01:34.861Z,7.70
2018-02-19T22:04:02.731Z,7.70
2018-02-19T22:06:30.803Z,7.70
2018-02-19T22:08:58.656Z,7.70
2018-02-19T22:11:26.526Z,7.70
2018-02-19T22:13:54.504Z,7.60
2018-02-19T22:16:22.372Z,7.60
2018-02-19T22:18:50.345Z,7.60
2018-02-19T22:21:18.199Z,7.60
2018-02-19T22:23:46.072Z,7.60
2018-02-19T22:26:13.917Z,7.50
2018-02-19T22:28:41.809Z,7.50
2018-02-19T22:31:09.632Z,7.50
2018-02-19T22:33:37.539Z,7.50
2018-02-19T22:36:05.406Z,7.50
2018-02-19T22:38:33.265Z,7.50
2018-02-19T22:41:01.244Z,7.50
2018-02-19T22:43:29.032Z,7.50
2018-02-19T22:45:57.656Z,7.50
2018-02-19T22:48:26.167Z,7.40
2018-02-19T22:50:53.963Z,7.40
2018-02-19T22:53:22.507Z,7.40
2018-02-19T22:55:50.178Z,7.40
2018-02-19T22:58:18.032Z,7.40
2018-02-19T23:00:45.725Z,7.30
2018-02-19T23:03:13.417Z,7.30
2018-02-19T23:05:41.942Z,7.30
2018-02-19T23:08:09.686Z,7.30
2018-02-19T23:10:37.499Z,7.30
2018-02-19T23:13:05.361Z,7.30
2018-02-19T23:15:33.208Z,7.30
2018-02-19T23:18:01.074Z,7.20
2018-02-19T23:20:28.724Z,7.20
2018-02-19T23:22:56.391Z,7.20
2018-02-19T23:25:24.395Z,7.20
2018-02-19T23:27:52.358Z,7.20
2018-02-19T23:30:20.106Z,7.10
2018-02-19T23:32:48.076Z,7.10
2018-02-19T23:35:15.959Z,7.10
2018-02-19T23:37:43.732Z,7.10
2018-02-19T23:40:12.405Z,7.00
2018-02-19T23:42:40.031Z,7.00
2018-02-19T23:45:07.731Z,7.00
2018-02-19T23:47:35.580Z,6.90
2018-02-19T23:50:03.365Z,6.90
2018-02-19T23:52:31.235Z,6.90
2018-02-19T23:54:59.085Z,6.90
2018-02-19T23:57:27.574Z,6.80
2018-02-19T23:59:55.267Z,6.80
